Time;durP1;ratioP1;P1;durP2;ratioP2;P2;SDS_P1;SDS_P2;PMS_P1;PMS_P2;Temp;Humidity;BMP_temperature;BMP_pressure;BME280_temperature;BME280_humidity;BME280_pressure;Samples;Min_cycle;Max_cycle;Signal;HPM_P1;HPM_P2
2024/01/01 00:00:38;;;;;;;;;;;;;;;15.98;36.08;94990.75;10457223;28;5321;-60
2024/01/01 00:05:39;;;;;;;;;;;;;;;15.97;36.14;94982.13;10456526;28;1993;-60
2024/01/01 00:10:39;;;;;;;;;;;;;;;15.97;36.18;94982.13;10457684;28;2005;-60
2024/01/01 00:15:39;;;;;;;;;;;;;;;15.96;36.21;94977.97;10454731;28;2024;-60
2024/01/01 00:20:40;;;;;;;;;;;;;;;15.96;36.14;94975.34;10462709;28;2030;-59
2024/01/01 00:25:40;;;;;;;;;;;;;;;15.95;36.17;94973.78;10458312;28;1938;-60
2024/01/01 00:30:40;;;;;;;;;;;;;;;15.95;36.22;94971.16;10436544;28;2050;-59
2024/01/01 00:35:40;;;;;;;;;;;;;;;15.94;36.20;94969.59;10467461;28;2295;-60
2024/01/01 00:40:41;;;;;;;;;;;;;;;15.94;36.11;94968.81;10464253;28;2061;-60
2024/01/01 00:45:41;;;;;;;;;;;;;;;15.94;36.17;94971.44;10466355;28;1978;-60
2024/01/01 00:50:41;;;;;;;;;;;;;;;15.92;36.08;94976.94;10440298;28;2246;-60
2024/01/01 00:55:42;;;;;;;;;;;;;;;15.91;36.17;94979.81;10457738;28;2156;-60
2024/01/01 01:00:42;;;;;;;;;;;;;;;15.91;36.17;94974.59;10465972;28;5274;-60
2024/01/01 01:05:42;;;;;;;;;;;;;;;15.91;36.16;94969.34;10462840;28;2012;-60
2024/01/01 01:10:42;;;;;;;;;;;;;;;15.91;36.15;94988.41;10461643;28;1984;-60
2024/01/01 01:15:43;;;;;;;;;;;;;;;15.90;36.06;94979.03;10449573;28;1911;-60
2024/01/01 01:20:43;;;;;;;;;;;;;;;15.89;36.00;94977.44;10461115;28;2135;-61
2024/01/01 01:25:44;;;;;;;;;;;;;;;15.89;36.16;94987.13;10461058;28;2109;-60
2024/01/01 01:30:44;;;;;;;;;;;;;;;15.89;36.08;94993.13;10447409;28;2567;-60
2024/01/01 01:35:44;;;;;;;;;;;;;;;15.87;36.09;94992.59;10460628;28;1949;-60
2024/01/01 01:40:44;;;;;;;;;;;;;;;15.88;36.08;95003.84;10457664;28;1970;-59
2024/01/01 01:45:45;;;;;;;;;;;;;;;15.88;36.03;95002.00;10461795;28;2096;-60
2024/01/01 01:50:45;;;;;;;;;;;;;;;15.87;36.12;95000.44;10445523;28;2125;-60
2024/01/01 01:55:45;;;;;;;;;;;;;;;15.88;36.09;95006.44;10427906;28;2177;-60
2024/01/01 02:00:46;;;;;;;;;;;;;;;15.87;36.18;95002.25;10461558;28;2041;-59
2024/01/01 02:05:46;;;;;;;;;;;;;;;15.86;36.08;95001.50;10458992;28;1978;-60
2024/01/01 02:10:47;;;;;;;;;;;;;;;15.85;36.09;94994.69;10459767;28;1951;-59
2024/01/01 02:15:47;;;;;;;;;;;;;;;15.84;36.28;94995.75;10460344;28;1921;-59
2024/01/01 02:20:47;;;;;;;;;;;;;;;15.84;36.05;95006.19;10455891;28;2057;-59
2024/01/01 02:25:48;;;;;;;;;;;;;;;15.85;36.11;95006.97;10457157;28;2020;-58
2024/01/01 02:30:48;;;;;;;;;;;;;;;15.84;36.05;94994.97;10455922;28;1981;-60
2024/01/01 02:35:48;;;;;;;;;;;;;;;15.83;35.97;94994.16;10464476;28;2076;-59
2024/01/01 02:40:48;;;;;;;;;;;;;;;15.82;36.04;94995.22;10439580;28;2005;-60
2024/01/01 02:45:49;;;;;;;;;;;;;;;15.81;36.03;94985.00;10457036;28;2025;-59
2024/01/01 02:50:49;;;;;;;;;;;;;;;15.81;36.11;94983.19;10461712;28;1954;-59
2024/01/01 02:55:49;;;;;;;;;;;;;;;15.81;35.93;94975.34;10464576;28;5176;-60
2024/01/01 03:00:49;;;;;;;;;;;;;;;15.81;36.03;94987.63;10463813;28;2116;-59
2024/01/01 03:05:50;;;;;;;;;;;;;;;15.81;35.99;94985.81;10462568;28;2006;-60
2024/01/01 03:10:50;;;;;;;;;;;;;;;15.80;35.97;94979.03;10456187;28;1952;-59
2024/01/01 03:15:50;;;;;;;;;;;;;;;15.78;36.07;94975.88;10460999;28;1982;-59
2024/01/01 03:20:50;;;;;;;;;;;;;;;15.79;36.16;94980.06;10454344;28;1988;-59
2024/01/01 03:25:51;;;;;;;;;;;;;;;15.78;35.94;94973.28;10460207;28;1874;-59
2024/01/01 03:30:51;;;;;;;;;;;;;;;15.78;36.02;94967.25;10461036;28;2028;-60
2024/01/01 03:35:51;;;;;;;;;;;;;;;15.77;36.06;94963.84;10457933;28;1914;-59
2024/01/01 03:40:51;;;;;;;;;;;;;;;15.76;35.94;94962.31;10456330;28;2079;-59
2024/01/01 03:45:52;;;;;;;;;;;;;;;15.77;35.92;94963.84;10452838;28;2272;-59
2024/01/01 03:50:52;;;;;;;;;;;;;;;15.76;36.06;94961.50;10452594;28;1962;-59
2024/01/01 03:55:52;;;;;;;;;;;;;;;15.75;36.15;94955.50;10459813;28;5054;-59
2024/01/01 04:00:52;;;;;;;;;;;;;;;15.74;36.04;94948.72;10457989;28;1904;-60
2024/01/01 04:05:53;;;;;;;;;;;;;;;15.74;36.03;94948.72;10471095;28;1974;-59
2024/01/01 04:10:53;;;;;;;;;;;;;;;15.74;36.05;94950.53;10462549;28;1965;-59
2024/01/01 04:15:53;;;;;;;;;;;;;;;15.75;36.04;94952.88;10466246;28;1943;-59
2024/01/01 04:20:54;;;;;;;;;;;;;;;15.73;36.01;94973.25;10460072;28;2124;-59
2024/01/01 04:25:54;;;;;;;;;;;;;;;15.72;36.00;94969.09;10459331;28;1942;-59
2024/01/01 04:30:54;;;;;;;;;;;;;;;15.73;35.97;94972.47;10464925;28;1910;-59
2024/01/01 04:35:54;;;;;;;;;;;;;;;15.70;35.96;94973.00;10461885;28;1949;-59
2024/01/01 04:40:55;;;;;;;;;;;;;;;15.71;35.95;94991.03;10469664;28;2428;-59
2024/01/01 04:45:55;;;;;;;;;;;;;;;15.71;35.93;94991.03;10465743;28;1994;-60
2024/01/01 04:50:55;;;;;;;;;;;;;;;15.69;35.84;94998.34;10464239;28;1932;-59
2024/01/01 04:55:55;;;;;;;;;;;;;;;15.69;36.00;95008.78;10463377;28;5037;-60
2024/01/01 05:00:56;;;;;;;;;;;;;;;15.69;35.82;95008.00;10466650;28;1918;-59
2024/01/01 05:05:56;;;;;;;;;;;;;;;15.69;36.07;95014.03;10464930;28;2012;-58
2024/01/01 05:10:56;;;;;;;;;;;;;;;15.68;35.88;95015.06;10463403;28;1969;-59
2024/01/01 05:15:57;;;;;;;;;;;;;;;15.67;35.86;95005.66;10469567;28;1882;-60
2024/01/01 05:20:59;;;;;;;;;;;;;;;15.67;35.97;95018.72;10468064;28;2031;-60
2024/01/01 05:26:00;;;;;;;;;;;;;;;15.67;35.88;95018.72;10465365;28;2065;-59
2024/01/01 05:31:00;;;;;;;;;;;;;;;15.66;35.92;95029.44;10462674;28;1906;-59
2024/01/01 05:36:01;;;;;;;;;;;;;;;15.65;35.86;95033.09;10454140;28;2561;-59
2024/01/01 05:41:01;;;;;;;;;;;;;;;15.65;35.93;95041.72;10458671;28;1967;-59
2024/01/01 05:46:02;;;;;;;;;;;;;;;15.64;35.86;95042.75;10457488;28;2120;-59
2024/01/01 05:51:02;;;;;;;;;;;;;;;15.63;35.87;95051.63;10460347;28;2089;-59
2024/01/01 05:56:03;;;;;;;;;;;;;;;15.64;35.86;95053.19;10454166;28;5023;-59
2024/01/01 06:01:03;;;;;;;;;;;;;;;15.64;35.84;95052.44;10454631;28;2047;-59
2024/01/01 06:06:07;;;;;;;;;;;;;;;15.62;35.79;95068.34;10464918;28;1935;-59
2024/01/01 06:11:07;;;;;;;;;;;;;;;15.62;35.83;95088.47;10441861;28;2029;-61
2024/01/01 06:16:07;;;;;;;;;;;;;;;15.63;35.79;95098.66;10458344;28;2123;-61
2024/01/01 06:21:08;;;;;;;;;;;;;;;15.61;35.89;95099.94;10458903;28;2042;-61
2024/01/01 06:26:09;;;;;;;;;;;;;;;15.61;35.88;95107.78;10457028;28;1937;-60
2024/01/01 06:31:09;;;;;;;;;;;;;;;15.60;35.93;95104.38;10462421;28;1924;-61
2024/01/01 06:36:09;;;;;;;;;;;;;;;15.61;35.87;95100.75;10463796;28;2264;-61
2024/01/01 06:41:10;;;;;;;;;;;;;;;15.60;35.81;95112.22;10436936;28;2180;-61
2024/01/01 06:46:10;;;;;;;;;;;;;;;15.60;35.92;95119.28;10451034;28;2316;-61
2024/01/01 06:51:11;;;;;;;;;;;;;;;15.59;35.89;95128.94;10459273;28;1971;-61
2024/01/01 06:56:11;;;;;;;;;;;;;;;15.58;35.92;95140.44;10459712;28;5158;-61
2024/01/01 07:01:11;;;;;;;;;;;;;;;15.58;35.78;95145.66;10419541;28;1970;-61
2024/01/01 07:06:11;;;;;;;;;;;;;;;15.57;35.88;95154.53;10459161;28;2100;-61
2024/01/01 07:11:12;;;;;;;;;;;;;;;15.58;35.88;95158.72;10453813;28;1993;-61
2024/01/01 07:16:12;;;;;;;;;;;;;;;15.57;35.82;95159.78;10460283;28;2003;-61
2024/01/01 07:21:12;;;;;;;;;;;;;;;15.57;35.80;95172.03;10456595;28;2069;-61
2024/01/01 07:26:13;;;;;;;;;;;;;;;15.56;35.83;95171.25;10456236;28;2099;-60
2024/01/01 07:31:13;;;;;;;;;;;;;;;15.55;35.76;95167.06;10452535;28;2422;-60
2024/01/01 07:36:13;;;;;;;;;;;;;;;15.55;35.66;95161.06;10457986;28;1970;-60
2024/01/01 07:41:13;;;;;;;;;;;;;;;15.55;35.69;95163.66;10453875;28;1962;-60
2024/01/01 07:46:14;;;;;;;;;;;;;;;15.53;35.77;95150.88;10451568;28;2060;-60
2024/01/01 07:51:14;;;;;;;;;;;;;;;15.54;35.87;95152.44;10455789;28;1985;-60
2024/01/01 07:56:14;;;;;;;;;;;;;;;15.54;35.69;95149.81;10454560;28;5027;-60
2024/01/01 08:01:18;;;;;;;;;;;;;;;15.55;35.84;95158.44;10460763;28;1928;-60
2024/01/01 08:06:18;;;;;;;;;;;;;;;15.55;35.88;95163.66;10453344;28;1863;-63
2024/01/01 08:11:19;;;;;;;;;;;;;;;15.54;35.81;95170.72;10452160;28;2033;-60
2024/01/01 08:16:19;;;;;;;;;;;;;;;15.54;35.91;95168.09;10454459;28;2021;-60
2024/01/01 08:21:20;;;;;;;;;;;;;;;15.56;36.13;95163.41;10457289;28;1919;-60
2024/01/01 08:26:20;;;;;;;;;;;;;;;15.56;36.04;95160.78;10449486;28;2327;-60
2024/01/01 08:31:21;;;;;;;;;;;;;;;15.56;36.26;95165.25;10456840;28;2123;-60
2024/01/01 08:36:21;;;;;;;;;;;;;;;15.57;36.41;95165.00;10456688;28;2031;-60
2024/01/01 08:41:21;;;;;;;;;;;;;;;15.59;36.41;95164.72;10452357;28;2022;-60
2024/01/01 08:46:23;;;;;;;;;;;;;;;15.59;36.52;95162.13;10457382;28;1965;-60
2024/01/01 08:51:23;;;;;;;;;;;;;;;15.58;36.70;95166.56;10462921;28;2040;-60
2024/01/01 08:56:23;;;;;;;;;;;;;;;15.59;36.65;95175.19;10459476;28;4798;-60
2024/01/01 09:01:23;;;;;;;;;;;;;;;15.62;36.88;95185.13;10462714;28;2072;-60
2024/01/01 09:06:24;;;;;;;;;;;;;;;15.63;36.95;95186.69;10461637;28;2036;-60
2024/01/01 09:11:24;;;;;;;;;;;;;;;15.63;37.07;95182.25;10464992;28;2016;-61
2024/01/01 09:16:29;;;;;;;;;;;;;;;15.64;37.14;95178.59;10456634;28;1958;-61
2024/01/01 09:21:29;;;;;;;;;;;;;;;15.64;37.41;95189.03;10455493;28;2569;-61
2024/01/01 09:26:30;;;;;;;;;;;;;;;15.65;37.22;95177.56;10470619;28;1915;-60
2024/01/01 09:31:31;;;;;;;;;;;;;;;15.66;36.99;95186.97;10460885;28;2115;-60
2024/01/01 09:36:31;;;;;;;;;;;;;;;15.68;37.14;95192.75;10465720;28;1991;-60
2024/01/01 09:41:31;;;;;;;;;;;;;;;15.68;37.13;95195.34;10462901;28;2042;-61
2024/01/01 09:46:35;;;;;;;;;;;;;;;15.69;36.88;95196.91;10446154;28;1881;-60
2024/01/01 09:51:38;;;;;;;;;;;;;;;15.70;36.78;95198.50;10458067;28;1939;-60
2024/01/01 09:56:38;;;;;;;;;;;;;;;15.71;36.71;95192.22;10458982;28;4998;-60
2024/01/01 10:01:38;;;;;;;;;;;;;;;15.71;36.74;95202.66;10450113;28;1862;-60
2024/01/01 10:06:39;;;;;;;;;;;;;;;15.71;36.78;95200.06;10464055;28;1958;-60
2024/01/01 10:11:41;;;;;;;;;;;;;;;15.70;36.70;95198.50;10454764;28;2138;-61
2024/01/01 10:16:41;;;;;;;;;;;;;;;15.68;36.72;95202.41;10461456;28;2303;-60
2024/01/01 10:21:42;;;;;;;;;;;;;;;15.66;36.85;95202.63;10441698;28;1969;-61
2024/01/01 10:26:42;;;;;;;;;;;;;;;15.64;37.20;95190.88;10468946;28;2072;-60
2024/01/01 10:31:44;;;;;;;;;;;;;;;15.63;37.16;95187.47;10442447;28;1891;-60
2024/01/01 10:36:44;;;;;;;;;;;;;;;15.60;37.05;95190.59;10465245;28;1903;-61
2024/01/01 10:41:44;;;;;;;;;;;;;;;15.60;37.19;95187.22;10463393;28;2033;-60
2024/01/01 10:46:45;;;;;;;;;;;;;;;15.60;37.30;95187.97;10453611;28;1922;-61
2024/01/01 10:52:11;;;;;;;;;;;;;;;15.58;37.05;95184.84;10461298;28;1976;-61
2024/01/01 10:57:27;;;;;;;;;;;;;;;15.57;37.09;95193.72;10457087;28;5007;-60
2024/01/01 11:02:27;;;;;;;;;;;;;;;15.58;36.93;95194.53;10455996;28;2002;-60
2024/01/01 11:07:46;;;;;;;;;;;;;;;15.58;37.01;95194.53;10456813;28;1985;-61
2024/01/01 11:12:46;;;;;;;;;;;;;;;15.57;36.96;95196.34;10458387;28;1894;-59
2024/01/01 11:17:47;;;;;;;;;;;;;;;15.55;36.98;95198.41;10453899;28;2355;-61
2024/01/01 11:22:47;;;;;;;;;;;;;;;15.56;36.87;95201.81;10459386;28;2016;-61
2024/01/01 11:27:47;;;;;;;;;;;;;;;15.58;36.73;95205.72;10451460;28;2057;-61
2024/01/01 11:32:48;;;;;;;;;;;;;;;15.58;36.63;95205.72;10450880;28;1951;-61
2024/01/01 11:37:48;;;;;;;;;;;;;;;15.61;36.37;95205.25;10458613;28;1955;-61
2024/01/01 11:42:51;;;;;;;;;;;;;;;15.64;36.58;95198.72;10452907;28;2393;-60
2024/01/01 11:47:52;;;;;;;;;;;;;;;15.64;36.45;95198.72;10452064;28;2006;-61
2024/01/01 11:52:58;;;;;;;;;;;;;;;15.65;36.64;95195.06;10450800;28;2128;-61
2024/01/01 11:57:58;;;;;;;;;;;;;;;15.67;36.58;95187.75;10459316;28;5090;-61
2024/01/01 12:02:59;;;;;;;;;;;;;;;15.66;36.67;95188.81;10455437;28;2356;-61
2024/01/01 12:08:10;;;;;;;;;;;;;;;15.67;36.59;95178.09;10445596;28;2095;-61
2024/01/01 12:13:10;;;;;;;;;;;;;;;15.68;36.81;95171.03;10456499;28;1933;-61
2024/01/01 12:18:14;;;;;;;;;;;;;;;15.68;36.87;95179.69;10462084;28;1974;-61
2024/01/01 12:23:17;;;;;;;;;;;;;;;15.70;36.90;95168.97;10459214;28;1888;-60
2024/01/01 12:28:19;;;;;;;;;;;;;;;15.71;36.84;95184.38;10462953;28;2054;-61
2024/01/01 12:33:19;;;;;;;;;;;;;;;15.72;36.95;95190.41;10462467;28;1899;-61
2024/01/01 12:38:20;;;;;;;;;;;;;;;15.71;36.68;95186.19;10457167;28;2223;-61
2024/01/01 12:43:20;;;;;;;;;;;;;;;15.72;36.75;95182.56;10462946;28;2421;-59
2024/01/01 12:48:20;;;;;;;;;;;;;;;15.72;36.75;95180.72;10464069;28;2098;-61
2024/01/01 12:53:20;;;;;;;;;;;;;;;15.72;36.78;95178.13;10464395;28;1889;-62
2024/01/01 12:58:21;;;;;;;;;;;;;;;15.73;36.75;95171.84;10464062;28;5108;-61
2024/01/01 13:03:21;;;;;;;;;;;;;;;15.75;37.02;95185.44;10457846;28;2020;-60
2024/01/01 13:08:22;;;;;;;;;;;;;;;15.75;36.93;95185.44;10459514;28;2014;-61
2024/01/01 13:13:22;;;;;;;;;;;;;;;15.76;36.94;95176.56;10461627;28;1905;-61
2024/01/01 13:18:22;;;;;;;;;;;;;;;15.76;36.92;95181.00;10466901;28;1995;-59
2024/01/01 13:23:23;;;;;;;;;;;;;;;15.77;37.01;95179.94;10467525;28;2245;-61
2024/01/01 13:28:23;;;;;;;;;;;;;;;15.78;37.28;95174.47;10453389;28;2106;-61
2024/01/01 13:33:23;;;;;;;;;;;;;;;15.83;37.11;95171.88;10464281;28;2065;-61
2024/01/01 13:38:23;;;;;;;;;;;;;;;15.86;37.31;95167.97;10459193;28;1938;-61
2024/01/01 13:43:24;;;;;;;;;;;;;;;15.83;37.14;95171.88;10460476;28;1866;-61
2024/01/01 13:48:24;;;;;;;;;;;;;;;15.85;37.72;95169.78;10448480;28;2056;-61
2024/01/01 13:53:25;;;;;;;;;;;;;;;15.83;37.30;95171.06;10440503;28;1962;-60
2024/01/01 13:58:27;;;;;;;;;;;;;;;15.84;37.11;95188.34;10457127;28;4801;-61
2024/01/01 14:03:30;;;;;;;;;;;;;;;15.82;37.37;95172.13;10457309;28;2030;-61
2024/01/01 14:08:30;;;;;;;;;;;;;;;15.80;37.43;95175.00;10461553;28;1980;-61
2024/01/01 14:13:30;;;;;;;;;;;;;;;15.81;37.28;95168.72;10464008;28;2045;-60
2024/01/01 14:18:30;;;;;;;;;;;;;;;15.80;37.21;95177.63;10466135;28;1882;-61
2024/01/01 14:23:31;;;;;;;;;;;;;;;15.78;37.04;95179.72;10457571;28;2289;-61
2024/01/01 14:28:31;;;;;;;;;;;;;;;15.77;37.04;95188.56;10463369;28;2065;-60
2024/01/01 14:33:33;;;;;;;;;;;;;;;15.77;36.98;95187.78;10450179;28;2142;-61
2024/01/01 14:38:33;;;;;;;;;;;;;;;15.75;37.05;95203.72;10461575;28;1956;-61
2024/01/01 14:43:34;;;;;;;;;;;;;;;15.73;36.96;95203.19;10459507;28;1982;-60
2024/01/01 14:48:34;;;;;;;;;;;;;;;15.71;36.95;95200.06;10460326;28;1979;-61
2024/01/01 14:53:34;;;;;;;;;;;;;;;15.69;37.18;95201.34;10461107;28;1997;-61
2024/01/01 14:58:35;;;;;;;;;;;;;;;15.68;37.06;95187.50;10446090;28;5057;-60
2024/01/01 15:03:35;;;;;;;;;;;;;;;15.67;37.04;95192.97;10458790;28;1913;-61
2024/01/01 15:08:36;;;;;;;;;;;;;;;15.67;36.99;95200.81;10459399;28;2121;-61
2024/01/01 15:13:36;;;;;;;;;;;;;;;15.64;36.98;95204.72;10453694;28;1974;-61
2024/01/01 15:18:37;;;;;;;;;;;;;;;15.64;36.98;95217.78;10458637;28;1843;-61
2024/01/01 15:23:37;;;;;;;;;;;;;;;15.65;37.02;95227.19;10454808;28;2266;-60
2024/01/01 15:28:37;;;;;;;;;;;;;;;15.62;36.95;95240.75;10457417;28;1998;-61
2024/01/01 15:39:16;;;;;;;;;;;;;;;15.62;36.95;95245.22;10472900;28;4672;-61
2024/01/01 15:44:16;;;;;;;;;;;;;;;15.61;36.97;95247.03;10511155;28;2043;-61
2024/01/01 15:49:17;;;;;;;;;;;;;;;15.60;37.10;95253.28;10514728;28;1950;-61
2024/01/01 15:54:17;;;;;;;;;;;;;;;15.60;37.01;95247.31;10504135;28;2094;-61
2024/01/01 15:59:18;;;;;;;;;;;;;;;15.60;36.84;95248.06;10509127;28;2101;-61
2024/01/01 16:04:18;;;;;;;;;;;;;;;15.57;36.91;95261.66;10525604;28;2170;-61
2024/01/01 16:09:18;;;;;;;;;;;;;;;15.57;36.87;95272.09;10486416;28;2048;-61
2024/01/01 16:14:19;;;;;;;;;;;;;;;15.59;36.78;95279.69;10510135;28;2253;-61
2024/01/01 16:19:19;;;;;;;;;;;;;;;15.57;36.88;95276.53;10508167;28;2341;-60
2024/01/01 16:24:19;;;;;;;;;;;;;;;15.57;36.75;95279.94;10503205;28;1938;-62
2024/01/01 16:29:20;;;;;;;;;;;;;;;15.56;36.72;95275.72;10508948;28;2059;-60
2024/01/01 16:34:20;;;;;;;;;;;;;;;15.56;36.86;95280.19;10501913;28;2076;-61
2024/01/01 16:39:21;;;;;;;;;;;;;;;15.55;36.75;95289.84;10511050;28;2045;-61
2024/01/01 16:44:22;;;;;;;;;;;;;;;15.55;36.80;95283.84;10520675;28;2071;-61
2024/01/01 16:49:22;;;;;;;;;;;;;;;15.54;36.74;95288.25;10506136;28;2007;-60
2024/01/01 16:54:22;;;;;;;;;;;;;;;15.53;36.68;95289.31;10510211;28;1957;-61
2024/01/01 16:59:23;;;;;;;;;;;;;;;15.54;36.61;95300.56;10511187;28;5022;-60
2024/01/01 17:04:23;;;;;;;;;;;;;;;15.52;36.66;95306.00;10509242;28;1881;-61
2024/01/01 17:09:23;;;;;;;;;;;;;;;15.50;36.82;95313.31;10506709;28;2084;-61
2024/01/01 17:14:25;;;;;;;;;;;;;;;15.52;36.79;95315.69;10516830;28;2142;-60
2024/01/01 17:19:25;;;;;;;;;;;;;;;15.50;36.75;95313.31;10509004;28;2495;-61
2024/01/01 17:24:27;;;;;;;;;;;;;;;15.50;36.69;95323.75;10513749;28;1924;-61
2024/01/01 17:29:28;;;;;;;;;;;;;;;15.48;36.55;95321.41;10516543;28;1945;-61
2024/01/01 17:34:28;;;;;;;;;;;;;;;15.49;36.70;95327.44;10513224;28;2035;-60
2024/01/01 17:39:29;;;;;;;;;;;;;;;15.48;36.70;95326.63;10511422;28;1922;-60
2024/01/01 17:44:29;;;;;;;;;;;;;;;15.49;36.62;95327.44;10512543;28;1997;-60
2024/01/01 17:49:31;;;;;;;;;;;;;;;15.48;36.79;95336.28;10491937;28;1968;-61
2024/01/01 17:54:32;;;;;;;;;;;;;;;15.47;36.78;95337.34;10506590;28;2074;-61
2024/01/01 17:59:32;;;;;;;;;;;;;;;15.48;36.71;95338.91;10508563;28;1993;-60
2024/01/01 18:04:32;;;;;;;;;;;;;;;15.47;36.77;95342.56;10509170;28;2004;-61
2024/01/01 18:09:33;;;;;;;;;;;;;;;15.55;36.83;95346.53;10517626;28;2408;-60
2024/01/01 18:14:35;;;;;;;;;;;;;;;15.30;35.80;95347.09;10512965;28;2288;-62
2024/01/01 18:19:35;;;;;;;;;;;;;;;14.86;36.38;95345.69;10511826;28;2162;-63
2024/01/01 18:24:38;;;;;;;;;;;;;;;15.39;36.45;95341.16;10504276;28;1919;-58
2024/01/01 18:29:41;;;;;;;;;;;;;;;15.66;36.36;95346.34;10504310;28;2056;-59
2024/01/01 18:34:42;;;;;;;;;;;;;;;15.82;36.81;95347.22;10510654;28;2001;-58
2024/01/01 18:39:42;;;;;;;;;;;;;;;16.20;36.63;95358.13;10490387;28;1870;-61
2024/01/01 18:44:43;;;;;;;;;;;;;;;16.52;37.09;95352.81;10505336;28;1858;-62
2024/01/01 18:49:43;;;;;;;;;;;;;;;16.79;37.70;95363.88;10510156;28;1950;-59
2024/01/01 18:54:46;;;;;;;;;;;;;;;16.93;37.66;95361.53;10510262;28;2110;-58
2024/01/01 18:59:46;;;;;;;;;;;;;;;16.98;37.78;95366.78;10512680;28;2398;-63
2024/01/01 19:04:47;;;;;;;;;;;;;;;17.29;37.67;95376.22;10503679;28;1988;-60
2024/01/01 19:09:47;;;;;;;;;;;;;;;17.41;37.89;95370.75;10516550;28;1969;-60
2024/01/01 19:14:47;;;;;;;;;;;;;;;17.68;37.45;95364.19;10517423;28;1755;-60
2024/01/01 19:19:49;;;;;;;;;;;;;;;17.79;37.27;95357.91;10512291;28;1940;-59
2024/01/01 19:24:50;;;;;;;;;;;;;;;17.90;37.03;95363.91;10514984;28;1523;-59
2024/01/01 19:29:50;;;;;;;;;;;;;;;18.03;37.00;95352.88;10513160;28;1917;-61
2024/01/01 19:34:50;;;;;;;;;;;;;;;18.14;37.52;95354.41;10520258;28;1372;-61
2024/01/01 19:39:51;;;;;;;;;;;;;;;18.23;37.69;95359.91;10517972;28;1452;-62
2024/01/01 19:44:51;;;;;;;;;;;;;;;18.38;37.90;95359.84;10513806;28;2460;-62
2024/01/01 19:49:51;;;;;;;;;;;;;;;18.43;38.04;95358.00;10523708;28;1969;-60
2024/01/01 19:54:51;;;;;;;;;;;;;;;18.59;38.22;95350.84;10510572;28;1728;-59
2024/01/01 19:59:52;;;;;;;;;;;;;;;18.62;38.07;95356.34;10513975;28;4921;-60
2024/01/01 20:04:52;;;;;;;;;;;;;;;18.75;38.52;95356.81;10509554;28;1534;-61
2024/01/01 20:09:52;;;;;;;;;;;;;;;18.86;37.65;95371.44;10516242;28;1902;-60
2024/01/01 20:14:53;;;;;;;;;;;;;;;18.97;37.93;95358.00;10503261;28;1617;-61
2024/01/01 20:19:53;;;;;;;;;;;;;;;19.04;38.15;95358.47;10514429;28;1887;-61
2024/01/01 20:24:53;;;;;;;;;;;;;;;19.14;37.14;95361.03;10523977;28;2432;-61
2024/01/01 20:29:53;;;;;;;;;;;;;;;19.22;38.39;95365.72;10507004;28;1960;-61
2024/01/01 20:34:54;;;;;;;;;;;;;;;19.30;37.45;95365.13;10513728;28;1443;-61
2024/01/01 20:39:56;;;;;;;;;;;;;;;19.38;39.33;95358.53;10518866;28;1564;-59
2024/01/01 20:44:56;;;;;;;;;;;;;;;19.47;39.21;95349.75;10521752;28;1729;-61
2024/01/01 20:49:57;;;;;;;;;;;;;;;19.54;38.38;95346.06;10521904;28;1972;-60
2024/01/01 20:54:57;;;;;;;;;;;;;;;19.63;39.60;95339.91;10515224;28;1861;-60
2024/01/01 20:59:57;;;;;;;;;;;;;;;19.71;38.77;95341.16;10529281;28;5046;-62
2024/01/01 21:04:57;;;;;;;;;;;;;;;19.65;38.75;95334.38;10511152;28;2443;-61
2024/01/01 21:09:58;;;;;;;;;;;;;;;19.56;36.17;95328.91;10520210;28;1942;-64
2024/01/01 21:14:58;;;;;;;;;;;;;;;19.51;35.39;95326.34;10518512;28;2101;-63
2024/01/01 21:19:58;;;;;;;;;;;;;;;19.37;34.96;95315.69;10516085;28;1813;-63
2024/01/01 21:24:58;;;;;;;;;;;;;;;19.36;34.43;95311.50;10516078;28;1479;-66
2024/01/01 21:29:59;;;;;;;;;;;;;;;19.35;34.94;95301.28;10498945;28;1905;-63
2024/01/01 21:34:59;;;;;;;;;;;;;;;19.21;35.33;95295.03;10519144;28;1600;-62
2024/01/01 21:39:59;;;;;;;;;;;;;;;19.21;35.40;95295.03;10508005;28;2100;-64
2024/01/01 21:44:59;;;;;;;;;;;;;;;19.22;35.75;95297.41;10513161;28;2104;-66
2024/01/01 21:50:00;;;;;;;;;;;;;;;19.27;35.29;95283.41;10515880;28;2021;-65
2024/01/01 21:55:00;;;;;;;;;;;;;;;19.19;34.88;95284.00;10529581;28;1896;-66
2024/01/01 22:00:00;;;;;;;;;;;;;;;19.13;34.91;95283.28;10519192;28;4886;-66
2024/01/01 22:05:01;;;;;;;;;;;;;;;19.03;34.73;95287.81;10513869;28;2015;-66
2024/01/01 22:10:01;;;;;;;;;;;;;;;19.02;34.63;95273.88;10510399;28;2044;-66
2024/01/01 22:15:01;;;;;;;;;;;;;;;19.02;34.83;95270.50;10495436;28;2054;-66
2024/01/01 22:20:02;;;;;;;;;;;;;;;19.03;34.56;95261.56;10519890;28;2205;-66
2024/01/01 22:25:02;;;;;;;;;;;;;;;19.02;34.76;95260.75;10509520;28;1894;-66
2024/01/01 22:30:02;;;;;;;;;;;;;;;18.99;34.99;95258.69;10508939;28;2065;-66
2024/01/01 22:35:03;;;;;;;;;;;;;;;18.98;34.83;95248.47;10524268;28;1926;-66
2024/01/01 22:40:03;;;;;;;;;;;;;;;19.00;34.83;95246.34;10506875;28;1889;-65
2024/01/01 22:45:04;;;;;;;;;;;;;;;18.99;34.80;95239.53;10497001;28;2212;-65
2024/01/01 22:50:04;;;;;;;;;;;;;;;18.97;34.85;95239.81;10519307;28;2011;-65
2024/01/01 22:55:05;;;;;;;;;;;;;;;18.96;35.08;95230.34;10505320;28;2079;-65
2024/01/01 23:00:17;;;;;;;;;;;;;;;18.99;35.10;95221.13;10513408;28;4907;-65
2024/01/01 23:05:18;;;;;;;;;;;;;;;18.96;35.00;95230.34;10512068;28;1985;-65
2024/01/01 23:10:24;;;;;;;;;;;;;;;18.96;35.00;95221.69;10519117;28;1959;-64
2024/01/01 23:15:25;;;;;;;;;;;;;;;18.94;34.97;95227.22;10496460;28;1902;-65
2024/01/01 23:20:25;;;;;;;;;;;;;;;18.94;35.00;95232.47;10514383;28;1954;-65
2024/01/01 23:25:25;;;;;;;;;;;;;;;18.95;34.78;95223.53;10505737;28;2059;-66
2024/01/01 23:30:26;;;;;;;;;;;;;;;18.90;35.41;95217.56;10486299;28;2141;-64
2024/01/01 23:35:26;;;;;;;;;;;;;;;18.91;34.81;95216.47;10507965;28;1961;-64
2024/01/01 23:40:26;;;;;;;;;;;;;;;18.92;34.62;95212.81;10509127;28;2269;-65
2024/01/01 23:45:27;;;;;;;;;;;;;;;18.89;34.74;95208.88;10510844;28;2242;-64
2024/01/01 23:50:27;;;;;;;;;;;;;;;18.88;34.88;95202.06;10510524;28;1933;-65
2024/01/01 23:55:27;;;;;;;;;;;;;;;18.88;34.89;95204.69;10501464;28;2002;-64
